Time;durP1;ratioP1;P1;durP2;ratioP2;P2;SDS_P1;SDS_P2;PMS_P1;PMS_P2;Temp;Humidity;BMP_temperature;BMP_pressure;BME280_temperature;BME280_humidity;BME280_pressure;Samples;Min_cycle;Max_cycle;Signal;HPM_P1;HPM_P2
2021/09/28 00:00:15;;;;;;;227.33;217.50;;;11.40;99.90;;;;;;6224391;23;20412;-83
2021/09/28 00:02:48;;;;;;;217.30;208.00;;;11.40;99.90;;;;;;6215795;23;20435;-84
2021/09/28 00:05:15;;;;;;;212.63;203.77;;;11.40;99.90;;;;;;6215995;23;20431;-84
2021/09/28 00:07:43;;;;;;;208.87;199.63;;;11.40;99.90;;;;;;6216032;23;20412;-84
2021/09/28 00:10:17;;;;;;;208.93;199.63;;;11.40;99.90;;;;;;6216261;23;20420;-84
2021/09/28 00:12:45;;;;;;;191.17;181.97;;;11.40;99.90;;;;;;6216179;23;20404;-83
2021/09/28 00:15:13;;;;;;;196.70;187.50;;;11.40;99.90;;;;;;6214502;23;20404;-84
2021/09/28 00:17:48;;;;;;;200.57;191.37;;;11.30;99.90;;;;;;6225680;23;20411;-83
2021/09/28 00:20:15;;;;;;;189.57;181.17;;;11.20;99.90;;;;;;6225866;23;20408;-83
2021/09/28 00:22:42;;;;;;;202.83;193.60;;;11.20;99.90;;;;;;6225727;23;20408;-83
2021/09/28 00:25:12;;;;;;;206.60;196.53;;;11.30;99.90;;;;;;6215642;23;20455;-83
2021/09/28 00:27:40;;;;;;;196.53;187.13;;;11.30;99.90;;;;;;6215517;23;20404;-83
2021/09/28 00:30:09;;;;;;;186.47;177.40;;;11.30;99.90;;;;;;6214665;23;20411;-84
2021/09/28 00:32:43;;;;;;;185.90;177.43;;;11.20;99.90;;;;;;6225238;23;20875;-83
2021/09/28 00:35:20;;;;;;;196.27;186.77;;;11.30;99.90;;;;;;6215528;23;20431;-83
2021/09/28 00:37:49;;;;;;;184.57;175.83;;;11.20;99.90;;;;;;6213541;22;20470;-83
2021/09/28 00:40:20;;;;;;;174.97;166.60;;;11.20;99.90;;;;;;6255737;23;20410;-84
2021/09/28 00:42:53;;;;;;;171.27;162.63;;;11.20;99.90;;;;;;6256356;23;20414;-84
2021/09/28 00:45:21;;;;;;;167.27;158.90;;;11.30;99.90;;;;;;6254568;23;20443;-83
2021/09/28 00:50:27;;;;;;;174.97;166.37;;;11.30;99.90;;;;;;6232673;22;20563;-84
2021/09/28 00:52:58;;;;;;;167.90;159.17;;;11.20;99.90;;;;;;6246143;23;20406;-84
2021/09/28 00:55:37;;;;;;;183.00;173.57;;;11.20;99.90;;;;;;6255639;23;20953;-84
2021/09/28 00:58:08;;;;;;;174.63;166.50;;;11.20;99.90;;;;;;6256344;23;20408;-84
2021/09/28 01:00:41;;;;;;;174.47;166.20;;;11.10;99.90;;;;;;6254394;23;20607;-84
2021/09/28 01:03:08;;;;;;;177.73;169.57;;;11.10;99.90;;;;;;6256048;23;20400;-84
2021/09/28 01:05:39;;;;;;;182.23;173.20;;;11.10;99.90;;;;;;6255642;23;20442;-84
2021/09/28 01:08:10;;;;;;;183.90;174.57;;;11.10;99.90;;;;;;6255999;23;20396;-84
2021/09/28 01:10:53;;;;;;;179.50;170.50;;;11.00;99.90;;;;;;6255920;23;20947;-84
2021/09/28 01:13:21;;;;;;;176.57;167.77;;;11.10;99.90;;;;;;6242915;23;20793;-84
2021/09/28 01:16:02;;;;;;;176.60;168.20;;;11.10;99.90;;;;;;6256093;23;20445;-84
2021/09/28 01:18:31;;;;;;;181.60;172.80;;;11.00;99.90;;;;;;6255980;23;20410;-84
2021/09/28 01:21:00;;;;;;;182.57;173.00;;;11.00;99.90;;;;;;6245642;23;20400;-84
2021/09/28 01:23:28;;;;;;;166.43;157.47;;;11.00;99.90;;;;;;6245638;23;20936;-84
2021/09/28 01:25:57;;;;;;;172.43;163.80;;;10.90;99.90;;;;;;6245867;23;20509;-84
2021/09/28 01:28:26;;;;;;;174.73;166.33;;;10.90;99.90;;;;;;6254679;23;20411;-84
2021/09/28 01:33:30;;;;;;;155.10;147.60;;;11.00;99.90;;;;;;6180966;23;20473;-82
2021/09/28 01:35:57;;;;;;;147.17;139.80;;;10.90;99.90;;;;;;6225364;23;20411;-82
2021/09/28 01:38:25;;;;;;;143.37;136.37;;;11.00;99.90;;;;;;6215204;23;20400;-82
2021/09/28 01:40:54;;;;;;;135.77;128.80;;;11.00;99.90;;;;;;6215207;23;20393;-82
2021/09/28 01:43:21;;;;;;;131.50;124.57;;;11.10;99.90;;;;;;6214176;23;20400;-82
2021/09/28 01:45:54;;;;;;;128.77;121.97;;;11.10;99.90;;;;;;6225139;23;20432;-82
2021/09/28 01:48:24;;;;;;;120.03;113.90;;;11.00;99.90;;;;;;6215536;23;20736;-82
2021/09/28 01:50:51;;;;;;;110.43;105.23;;;11.00;99.90;;;;;;6215544;23;20407;-82
2021/09/28 01:53:19;;;;;;;110.43;104.63;;;11.00;99.90;;;;;;6215099;23;20406;-83
2021/09/28 01:55:47;;;;;;;116.63;110.40;;;11.00;99.90;;;;;;6225260;23;20432;-82
2021/09/28 01:58:17;;;;;;;110.87;104.60;;;11.10;99.90;;;;;;6213972;23;20405;-82
2021/09/28 02:00:45;;;;;;;105.30;98.73;;;11.10;99.90;;;;;;6215443;23;20487;-82
2021/09/28 02:03:16;;;;;;;109.47;103.60;;;11.20;99.90;;;;;;6215060;23;20439;-82
2021/09/28 02:05:43;;;;;;;107.47;102.43;;;11.20;99.90;;;;;;6215084;23;20436;-82
2021/09/28 02:08:11;;;;;;;103.53;98.03;;;11.30;99.90;;;;;;6225500;23;20419;-82
2021/09/28 02:10:41;;;;;;;99.17;94.03;;;11.30;99.90;;;;;;6215394;23;20478;-82
2021/09/28 02:13:10;;;;;;;96.23;91.53;;;11.40;99.90;;;;;;6215085;23;20450;-82
2021/09/28 02:15:37;;;;;;;93.60;88.30;;;11.40;99.90;;;;;;6214142;23;20900;-82
2021/09/28 02:18:05;;;;;;;95.17;90.03;;;11.40;99.90;;;;;;6215832;23;20401;-82
2021/09/28 02:20:32;;;;;;;94.20;88.47;;;11.20;99.90;;;;;;6217145;23;20400;-82
2021/09/28 02:22:59;;;;;;;94.07;88.60;;;11.10;99.90;;;;;;6226749;23;20415;-82
2021/09/28 02:25:28;;;;;;;97.17;92.17;;;11.00;99.90;;;;;;6226801;23;20439;-82
2021/09/28 02:27:55;;;;;;;102.10;96.50;;;10.80;99.90;;;;;;6217097;23;20443;-82
2021/09/28 02:30:24;;;;;;;105.00;99.10;;;10.80;99.90;;;;;;6215659;23;20435;-82
2021/09/28 02:32:51;;;;;;;109.60;102.70;;;10.70;99.90;;;;;;6222655;23;20446;-82
2021/09/28 02:35:21;;;;;;;114.90;108.60;;;10.70;99.90;;;;;;6247446;23;20400;-82
2021/09/28 02:37:48;;;;;;;120.60;114.00;;;10.60;99.90;;;;;;6257158;23;20726;-82
2021/09/28 02:40:16;;;;;;;127.20;120.60;;;10.70;99.90;;;;;;6257394;23;20783;-82
2021/09/28 02:42:43;;;;;;;135.53;128.60;;;10.70;99.90;;;;;;6247331;23;20400;-82
2021/09/28 02:45:11;;;;;;;142.40;134.97;;;10.60;99.90;;;;;;6245302;23;20435;-82
2021/09/28 02:47:39;;;;;;;145.97;138.67;;;10.70;99.90;;;;;;6257422;23;20727;-82
2021/09/28 02:50:09;;;;;;;148.83;141.47;;;10.70;99.90;;;;;;6247116;23;20728;-82
2021/09/28 02:52:36;;;;;;;149.83;141.93;;;10.60;99.90;;;;;;6246905;23;20952;-82
2021/09/28 02:55:05;;;;;;;159.27;149.50;;;10.60;99.90;;;;;;6247093;23;20485;-82
2021/09/28 02:57:32;;;;;;;162.60;153.57;;;10.60;99.90;;;;;;6247259;23;20400;-82
2021/09/28 02:59:59;;;;;;;159.70;151.40;;;10.50;99.90;;;;;;6255551;23;20399;-82
2021/09/28 03:02:26;;;;;;;166.40;157.60;;;10.40;99.90;;;;;;6247174;23;20432;-82
2021/09/28 03:04:54;;;;;;;165.60;157.00;;;10.30;99.90;;;;;;6246919;23;20467;-82
2021/09/28 03:07:23;;;;;;;178.40;167.93;;;10.30;99.90;;;;;;6247115;23;20400;-82
2021/09/28 03:09:52;;;;;;;171.53;162.33;;;10.30;99.90;;;;;;6257389;23;20495;-82
2021/09/28 03:12:19;;;;;;;186.73;176.50;;;10.20;99.90;;;;;;6203802;23;20407;-82
2021/09/28 03:14:47;;;;;;;180.40;170.40;;;10.20;99.90;;;;;;6245753;23;20400;-82
2021/09/28 03:17:14;;;;;;;180.87;170.33;;;10.30;99.90;;;;;;6257114;23;20457;-82
2021/09/28 03:19:41;;;;;;;183.70;173.90;;;10.10;99.90;;;;;;6246585;23;20892;-82
2021/09/28 03:22:10;;;;;;;190.90;181.67;;;10.00;99.90;;;;;;6246546;23;20399;-82
2021/09/28 03:24:37;;;;;;;192.70;182.70;;;10.10;99.90;;;;;;6256982;23;20434;-83
2021/09/28 03:27:09;;;;;;;196.07;185.70;;;10.00;99.90;;;;;;6257227;23;20768;-82
2021/09/28 03:29:37;;;;;;;204.00;193.57;;;10.00;99.90;;;;;;6245072;23;20491;-82
2021/09/28 03:32:08;;;;;;;206.13;195.97;;;10.00;99.90;;;;;;6256986;23;20403;-82
2021/09/28 03:34:35;;;;;;;209.13;197.60;;;10.10;99.90;;;;;;6256901;23;20439;-82
2021/09/28 03:37:02;;;;;;;206.80;196.20;;;10.10;99.90;;;;;;6256942;23;20399;-82
2021/09/28 03:39:32;;;;;;;220.73;209.70;;;10.00;99.90;;;;;;6257041;23;20494;-82
2021/09/28 03:41:59;;;;;;;232.20;220.20;;;10.00;99.90;;;;;;6256620;23;20395;-83
2021/09/28 03:44:27;;;;;;;226.67;214.70;;;10.00;99.90;;;;;;6245033;23;20427;-83
2021/09/28 03:46:54;;;;;;;229.77;218.57;;;9.90;99.90;;;;;;6246632;23;20407;-82
2021/09/28 03:49:21;;;;;;;226.23;215.10;;;10.00;99.90;;;;;;6246308;23;20445;-82
2021/09/28 03:51:54;;;;;;;219.97;208.37;;;9.90;99.90;;;;;;6256799;23;20411;-83
2021/09/28 03:54:27;;;;;;;219.07;207.53;;;9.80;99.90;;;;;;6256415;23;20992;-82
2021/09/28 03:57:13;;;;;;;219.47;208.50;;;9.80;99.90;;;;;;6256613;23;20733;-82
2021/09/28 03:59:47;;;;;;;221.57;210.17;;;9.90;99.90;;;;;;6245247;23;20474;-83
2021/09/28 04:02:20;;;;;;;226.87;215.47;;;9.80;99.90;;;;;;6246530;23;20446;-83
2021/09/28 04:04:49;;;;;;;231.87;219.77;;;9.80;99.90;;;;;;6178155;23;20434;-85
2021/09/28 04:07:24;;;;;;;226.43;215.20;;;9.90;99.90;;;;;;6246392;23;20406;-86
2021/09/28 04:09:52;;;;;;;227.73;216.23;;;9.90;99.90;;;;;;6256660;23;20403;-86
2021/09/28 04:12:26;;;;;;;231.77;220.07;;;9.80;99.90;;;;;;6203177;23;20469;-85
2021/09/28 04:15:02;;;;;;;224.03;213.37;;;9.80;99.90;;;;;;6254776;23;20402;-86
2021/09/28 04:17:39;;;;;;;229.30;217.80;;;10.00;99.90;;;;;;6245942;23;20482;-86
2021/09/28 04:20:09;;;;;;;222.67;211.27;;;9.80;99.90;;;;;;6246192;23;20772;-85
2021/09/28 04:22:36;;;;;;;222.47;211.27;;;9.90;99.90;;;;;;6256003;23;20415;-86
2021/09/28 04:25:07;;;;;;;223.30;211.90;;;9.80;99.90;;;;;;6246194;23;20431;-85
2021/09/28 04:27:37;;;;;;;222.13;210.90;;;9.90;99.90;;;;;;6256219;23;20883;-85
2021/09/28 04:30:08;;;;;;;213.23;202.93;;;10.00;99.90;;;;;;6244908;23;20740;-85
2021/09/28 04:32:38;;;;;;;209.77;199.50;;;10.00;99.90;;;;;;6255847;23;20466;-85
2021/09/28 04:35:06;;;;;;;205.53;194.63;;;10.20;99.90;;;;;;6245928;23;20462;-85
2021/09/28 04:37:39;;;;;;;197.53;186.80;;;10.30;99.90;;;;;;6256134;23;20404;-85
2021/09/28 04:40:09;;;;;;;181.47;172.53;;;10.30;99.90;;;;;;6256311;22;20407;-85
2021/09/28 04:42:38;;;;;;;174.40;164.70;;;10.20;99.90;;;;;;6245857;23;20410;-85
2021/09/28 04:45:06;;;;;;;171.63;163.30;;;10.20;99.90;;;;;;6244445;23;20501;-85
2021/09/28 04:47:33;;;;;;;163.73;155.37;;;10.20;99.90;;;;;;6231358;22;20471;-84
2021/09/28 04:50:01;;;;;;;161.10;152.90;;;10.20;99.90;;;;;;6255933;23;20473;-84
2021/09/28 04:52:28;;;;;;;160.10;151.70;;;10.10;99.90;;;;;;6245927;23;20431;-84
2021/09/28 04:54:54;;;;;;;157.03;147.80;;;10.10;99.90;;;;;;6246164;23;20396;-84
2021/09/28 04:57:22;;;;;;;154.50;146.30;;;10.00;99.90;;;;;;6255705;23;20407;-84
2021/09/28 04:59:55;;;;;;;151.07;143.27;;;10.10;99.90;;;;;;6244176;23;20431;-85
2021/09/28 05:02:28;;;;;;;136.67;129.20;;;10.20;99.90;;;;;;6246039;23;20450;-85
2021/09/28 05:05:10;;;;;;;136.30;128.80;;;10.20;99.90;;;;;;6245974;23;20406;-85
2021/09/28 05:07:58;;;;;;;128.67;121.87;;;10.20;99.90;;;;;;6246121;23;20399;-85
2021/09/28 05:10:31;;;;;;;124.17;117.30;;;10.30;99.90;;;;;;6255853;23;20445;-85
2021/09/28 05:12:58;;;;;;;120.00;113.17;;;10.20;99.90;;;;;;6255819;23;20769;-84
2021/09/28 05:15:31;;;;;;;122.63;115.97;;;10.20;99.90;;;;;;6244557;23;20403;-85
2021/09/28 05:17:58;;;;;;;123.80;116.30;;;10.20;99.90;;;;;;6256158;23;20414;-85
2021/09/28 05:20:29;;;;;;;122.40;115.63;;;10.20;99.90;;;;;;6255980;23;20508;-85
2021/09/28 05:23:05;;;;;;;118.17;112.33;;;10.20;99.90;;;;;;6246067;23;20399;-84
2021/09/28 05:25:33;;;;;;;117.67;111.57;;;10.10;99.90;;;;;;6255987;23;20439;-85
2021/09/28 05:28:06;;;;;;;117.93;110.90;;;10.20;99.90;;;;;;6245939;23;20404;-85
2021/09/28 05:30:37;;;;;;;116.97;111.00;;;10.10;99.90;;;;;;6254973;23;20415;-84
2021/09/28 05:33:08;;;;;;;118.00;111.67;;;10.20;99.90;;;;;;6245342;23;20881;-84
2021/09/28 05:35:36;;;;;;;116.77;110.40;;;10.20;99.90;;;;;;6255883;23;20431;-84
2021/09/28 05:38:03;;;;;;;110.20;104.80;;;10.20;99.90;;;;;;6255645;23;20437;-85
2021/09/28 05:40:32;;;;;;;112.80;107.27;;;10.20;99.90;;;;;;6255651;23;20410;-85
2021/09/28 05:42:59;;;;;;;114.27;108.00;;;10.10;99.90;;;;;;6256095;23;20405;-84
2021/09/28 05:45:32;;;;;;;117.50;111.50;;;10.10;99.90;;;;;;6254045;23;20435;-85
2021/09/28 05:48:06;;;;;;;120.17;113.90;;;10.00;99.90;;;;;;6255302;23;20827;-84
2021/09/28 05:50:36;;;;;;;117.03;110.93;;;10.10;99.90;;;;;;6256029;23;20415;-84
2021/09/28 05:53:08;;;;;;;117.17;111.50;;;10.10;99.90;;;;;;6246598;23;20431;-84
2021/09/28 05:55:37;;;;;;;113.33;107.77;;;10.20;99.90;;;;;;6257844;23;20468;-84
2021/09/28 05:58:06;;;;;;;116.10;110.47;;;10.10;99.90;;;;;;6257472;23;20399;-84
2021/09/28 06:00:35;;;;;;;118.37;111.57;;;10.20;99.90;;;;;;6246793;23;20395;-84
2021/09/28 06:03:04;;;;;;;116.33;110.10;;;10.20;99.90;;;;;;6257499;23;20410;-80
2021/09/28 06:05:31;;;;;;;120.03;113.60;;;10.10;99.90;;;;;;6257785;22;20824;-83
2021/09/28 06:07:58;;;;;;;119.20;113.40;;;10.20;99.90;;;;;;6257906;23;20885;-83
2021/09/28 06:10:25;;;;;;;120.20;113.60;;;10.30;99.90;;;;;;6257512;23;20906;-84
2021/09/28 06:15:27;;;;;;;122.30;115.90;;;10.30;99.90;;;;;;6173770;23;20419;-83
2021/09/28 06:17:54;;;;;;;121.57;114.73;;;10.40;99.90;;;;;;6186961;23;20423;-83
2021/09/28 06:20:22;;;;;;;125.00;118.37;;;10.40;99.90;;;;;;6187057;23;20404;-83
2021/09/28 06:22:49;;;;;;;122.87;116.37;;;10.50;99.90;;;;;;6186582;23;20451;-83
2021/09/28 06:25:16;;;;;;;126.33;118.87;;;10.60;99.90;;;;;;6196408;23;20405;-83
2021/09/28 06:27:43;;;;;;;121.57;114.87;;;10.50;99.90;;;;;;6196631;23;20413;-83
2021/09/28 06:30:10;;;;;;;124.70;118.10;;;10.60;99.90;;;;;;6185446;23;20724;-84
2021/09/28 06:32:39;;;;;;;120.53;114.17;;;10.60;99.90;;;;;;6196686;23;20471;-85
2021/09/28 06:35:07;;;;;;;123.23;116.03;;;10.70;99.90;;;;;;6196911;23;20500;-83
2021/09/28 06:37:35;;;;;;;119.87;113.57;;;10.70;99.90;;;;;;6196808;23;20405;-83
2021/09/28 06:40:04;;;;;;;120.23;113.67;;;10.70;99.90;;;;;;6186914;23;20492;-84
2021/09/28 06:42:34;;;;;;;119.63;112.20;;;10.80;99.90;;;;;;6186589;23;20467;-83
2021/09/28 06:45:01;;;;;;;116.60;109.80;;;11.00;99.90;;;;;;6195428;23;20416;-83
2021/09/28 06:47:30;;;;;;;115.57;109.30;;;11.10;99.90;;;;;;6186297;23;20437;-83
2021/09/28 06:49:57;;;;;;;110.07;104.07;;;11.10;99.90;;;;;;6186471;23;20441;-84
2021/09/28 06:52:26;;;;;;;110.73;104.00;;;10.90;99.90;;;;;;6212920;23;20478;-83
2021/09/28 06:55:00;;;;;;;107.20;101.80;;;11.20;99.90;;;;;;6226449;23;20427;-83
2021/09/28 06:57:26;;;;;;;105.97;100.33;;;11.40;99.90;;;;;;6216765;23;20891;-84
2021/09/28 06:59:58;;;;;;;103.80;98.13;;;11.50;99.90;;;;;;6215215;23;20476;-84
2021/09/28 07:02:25;;;;;;;100.87;95.50;;;11.70;99.90;;;;;;6216739;23;20403;-84
2021/09/28 07:04:51;;;;;;;96.40;91.93;;;11.80;99.90;;;;;;6225543;23;21154;-84
2021/09/28 07:07:18;;;;;;;95.73;89.57;;;11.90;99.90;;;;;;6216463;23;20432;-83
2021/09/28 07:09:45;;;;;;;91.27;86.53;;;12.10;99.90;;;;;;6213952;23;20401;-83
2021/09/28 07:12:18;;;;;;;77.93;74.27;;;12.20;99.90;;;;;;6224557;23;20740;-84
2021/09/28 07:14:50;;;;;;;77.67;74.17;;;12.30;99.90;;;;;;6212705;23;20490;-83
2021/09/28 07:17:21;;;;;;;78.00;74.30;;;12.40;99.90;;;;;;6214702;23;20400;-84
2021/09/28 07:19:57;;;;;;;77.73;74.20;;;12.60;99.90;;;;;;6215064;23;20407;-84
2021/09/28 07:22:45;;;;;;;69.87;66.23;;;12.70;99.90;;;;;;6216180;23;20458;-84
2021/09/28 07:25:12;;;;;;;59.87;57.00;;;12.80;99.90;;;;;;6226511;23;20418;-84
2021/09/28 07:27:43;;;;;;;65.13;61.63;;;12.90;99.90;;;;;;6226159;23;20428;-83
2021/09/28 07:30:11;;;;;;;46.90;44.17;;;13.00;99.90;;;;;;6224679;23;20409;-84
2021/09/28 07:32:38;;;;;;;44.93;42.60;;;13.00;99.90;;;;;;6216522;23;20401;-84
2021/09/28 07:35:09;;;;;;;35.23;32.70;;;13.10;99.90;;;;;;6216383;23;20396;-84
2021/09/28 07:37:37;;;;;;;25.80;24.20;;;13.20;99.90;;;;;;6216570;23;20408;-84
2021/09/28 07:40:06;;;;;;;22.93;21.27;;;13.10;99.90;;;;;;6226175;23;20435;-84
2021/09/28 07:42:33;;;;;;;23.03;20.57;;;13.20;99.90;;;;;;6216227;23;20459;-84
2021/09/28 07:45:09;;;;;;;18.70;16.60;;;13.30;99.90;;;;;;6214350;23;20415;-84
2021/09/28 07:47:36;;;;;;;14.23;11.27;;;13.40;99.90;;;;;;6226402;23;20436;-79
2021/09/28 07:50:03;;;;;;;16.87;6.53;;;13.50;99.90;;;;;;6215878;23;20407;-79
2021/09/28 07:52:30;;;;;;;10.50;8.10;;;13.60;99.90;;;;;;6225945;23;20435;-81
2021/09/28 07:54:57;;;;;;;14.80;9.07;;;13.80;99.90;;;;;;6225990;23;20408;-81
2021/09/28 07:57:24;;;;;;;13.23;8.43;;;13.80;99.90;;;;;;6216236;23;20479;-79
2021/09/28 07:59:53;;;;;;;11.07;5.80;;;13.90;99.90;;;;;;6214424;23;20400;-81
2021/09/28 08:02:22;;;;;;;8.33;5.17;;;13.90;98.40;;;;;;6216603;23;20463;-83
2021/09/28 08:04:51;;;;;;;15.50;6.30;;;14.10;96.60;;;;;;6215912;23;20411;-84
2021/09/28 08:10:57;;;;;;;8.77;3.67;;;14.30;94.10;;;;;;6167868;23;20462;-84
2021/09/28 08:13:52;;;;;;;;;;;;;;;;;;;;;
2021/09/28 08:16:31;;;;;;;;;;;;;;;;;;;;;
2021/09/28 08:19:17;;;;;;;14.93;2.70;;;14.60;87.40;;;;;;6256583;23;20402;-85
2021/09/28 08:21:49;;;;;;;8.20;3.00;;;14.60;88.90;;;;;;6246161;23;20395;-85
2021/09/28 08:24:29;;;;;;;12.50;3.10;;;14.90;87.90;;;;;;6255984;23;20418;-84
2021/09/28 08:29:57;;;;;;;6.23;2.73;;;15.30;83.70;;;;;;6244284;23;20879;-84
2021/09/28 08:36:16;;;;;;;12.70;3.17;;;15.70;75.70;;;;;;6152947;23;20418;-85
2021/09/28 08:41:35;;;;;;;6.90;2.90;;;16.00;77.40;;;;;;6244106;23;20417;-84
2021/09/28 08:44:18;;;;;;;22.43;3.00;;;16.20;74.70;;;;;;6198676;22;20446;-83
2021/09/28 08:46:52;;;;;;;5.10;2.10;;;16.60;72.30;;;;;;6215708;23;20433;-83
2021/09/28 08:49:40;;;;;;;16.33;3.30;;;16.70;68.50;;;;;;6215474;23;20411;-83
2021/09/28 08:52:39;;;;;;;13.17;3.00;;;16.90;70.00;;;;;;6226361;23;20435;-83
2021/09/28 09:02:08;;;;;;;;;;;;;;;;;;;;;
2021/09/28 09:05:13;;;;;;;9.70;3.13;;;18.40;54.20;;;;;;5940596;24;20471;-83
2021/09/28 09:08:19;;;;;;;12.07;2.83;;;18.60;53.40;;;;;;6065280;23;20469;-83
2021/09/28 09:11:27;;;;;;;6.20;2.20;;;19.10;53.60;;;;;;6079712;23;20422;-83
2021/09/28 09:14:50;;;;;;;;;;;;;;;;;;;;;
2021/09/28 09:20:42;;;;;;;10.60;2.67;;;19.70;45.20;;;;;;5963304;23;20906;-84
2021/09/28 09:24:12;;;;;;;;;;;;;;;;;;;;;
2021/09/28 09:30:23;;;;;;;;;;;;;;;;;;;;;
2021/09/28 09:33:13;;;;;;;7.57;2.10;;;19.80;42.70;;;;;;5813843;24;20422;-84
2021/09/28 09:39:09;;;;;;;;;;;;;;;;;;;;;
2021/09/28 09:51:10;;;;;;;;;;;;;;;;;;;;;
2021/09/28 09:53:54;;;;;;;14.63;2.10;;;18.90;43.30;;;;;;6163165;23;20407;-81
2021/09/28 09:57:00;;;;;;;14.57;2.10;;;19.20;43.60;;;;;;6216953;23;20403;-84
2021/09/28 10:31:24;;;;;;;9.33;2.00;;;19.80;34.60;;;;;;5950293;23;20992;-82
2021/09/28 10:33:55;;;;;;;8.37;2.03;;;20.00;36.20;;;;;;6154953;23;20417;-84
2021/09/28 10:36:25;;;;;;;11.27;2.50;;;19.80;33.10;;;;;;6217056;23;20401;-81
2021/09/28 10:38:58;;;;;;;7.13;2.40;;;20.20;35.50;;;;;;6216903;23;20401;-79
2021/09/28 10:42:02;;;;;;;;;;;;;;;;;;;;;
2021/09/28 10:44:43;;;;;;;15.73;3.20;;;20.80;34.10;;;;;;6224270;23;20796;-82
2021/09/28 10:47:48;;;;;;;16.63;5.57;;;20.50;31.20;;;;;;6216975;23;20502;-76
2021/09/28 10:50:19;;;;;;;12.53;6.10;;;20.90;31.50;;;;;;6216265;23;20430;-81
2021/09/28 10:52:46;;;;;;;15.47;3.40;;;21.30;29.40;;;;;;6216951;23;20485;-77
2021/09/28 10:55:40;;;;;;;14.67;3.90;;;21.30;28.00;;;;;;6216981;23;20727;-78
2021/09/28 10:58:17;;;;;;;11.30;3.03;;;21.60;28.20;;;;;;6216439;23;20403;-76
2021/09/28 11:01:15;;;;;;;14.50;3.10;;;21.60;26.70;;;;;;6216781;23;20397;-76
2021/09/28 11:04:01;;;;;;;8.87;2.90;;;21.60;25.50;;;;;;6216906;23;20481;-83
2021/09/28 11:09:16;;;;;;;8.53;2.50;;;21.80;25.70;;;;;;6194299;23;20450;-83
2021/09/28 11:11:45;;;;;;;13.73;3.30;;;22.10;22.20;;;;;;6247790;23;20441;-83
2021/09/28 11:14:12;;;;;;;9.80;2.47;;;22.40;21.80;;;;;;6245629;23;20410;-82
2021/09/28 11:16:41;;;;;;;15.23;3.40;;;22.50;21.00;;;;;;6246560;23;20398;-83
2021/09/28 11:19:08;;;;;;;8.60;2.83;;;23.30;22.90;;;;;;6246560;23;20399;-83
2021/09/28 11:21:40;;;;;;;10.80;2.67;;;23.40;23.30;;;;;;6246818;23;20403;-82
2021/09/28 11:24:14;;;;;;;8.60;2.50;;;23.00;16.40;;;;;;6256954;23;20906;-82
2021/09/28 11:26:43;;;;;;;11.87;2.87;;;22.50;19.40;;;;;;6246697;23;20469;-83
2021/09/28 11:29:20;;;;;;;10.17;2.90;;;22.30;17.80;;;;;;6255441;23;20466;-82
2021/09/28 11:31:48;;;;;;;8.30;2.80;;;22.10;20.30;;;;;;6246391;23;20402;-82
2021/09/28 11:34:25;;;;;;;7.57;2.90;;;21.80;22.40;;;;;;6256522;23;20412;-83
2021/09/28 11:37:02;;;;;;;14.30;2.70;;;21.90;22.10;;;;;;6256546;23;20404;-82
2021/09/28 11:39:35;;;;;;;10.03;2.37;;;21.50;22.50;;;;;;6246558;23;20721;-82
2021/09/28 11:42:12;;;;;;;11.97;2.60;;;21.90;24.20;;;;;;6246524;23;20456;-82
2021/09/28 11:44:46;;;;;;;7.47;1.90;;;22.20;21.90;;;;;;6245117;23;20484;-82
2021/09/28 11:47:18;;;;;;;13.23;3.00;;;22.10;21.20;;;;;;6246023;23;20465;-82
2021/09/28 11:49:49;;;;;;;13.87;3.60;;;22.40;23.70;;;;;;6256209;23;20430;-82
2021/09/28 11:52:16;;;;;;;9.20;2.90;;;21.90;25.30;;;;;;6246403;23;20438;-82
2021/09/28 11:54:49;;;;;;;8.83;2.33;;;22.10;26.00;;;;;;6246476;23;20401;-82
2021/09/28 11:57:17;;;;;;;7.10;2.53;;;22.40;23.00;;;;;;6246305;23;20404;-83
2021/09/28 11:59:45;;;;;;;9.83;2.73;;;22.30;23.90;;;;;;6244710;23;20404;-83
2021/09/28 12:02:15;;;;;;;12.00;3.50;;;22.50;24.80;;;;;;6246314;23;20869;-82
2021/09/28 12:10:38;;;;;;;11.83;2.40;;;22.40;23.50;;;;;;6232605;23;20406;-78
2021/09/28 12:20:37;;;;;;;12.37;2.87;;;22.40;22.00;;;;;;5912517;24;20426;-81
2021/09/28 12:23:04;;;;;;;6.93;2.23;;;22.70;21.60;;;;;;6119086;23;20790;-78
2021/09/28 12:26:27;;;;;;;11.03;3.13;;;22.70;21.60;;;;;;6123615;23;20414;-83
2021/09/28 12:42:16;;;;;;;5.93;2.53;;;22.30;21.20;;;;;;6096903;23;20648;-81
2021/09/28 12:45:07;;;;;;;9.57;2.10;;;22.40;21.10;;;;;;6244727;23;20433;-83
2021/09/28 12:48:07;;;;;;;4.43;1.90;;;22.30;23.60;;;;;;6245734;23;20427;-81
2021/09/28 12:50:43;;;;;;;7.37;2.30;;;22.60;23.90;;;;;;6245317;23;20433;-81
2021/09/28 12:53:16;;;;;;;3.53;1.17;;;22.70;23.00;;;;;;6245284;23;20427;-83
2021/09/28 12:55:46;;;;;;;8.93;2.67;;;22.60;21.60;;;;;;6246093;23;20401;-83
2021/09/28 13:01:44;;;;;;;4.77;1.70;;;22.30;21.40;;;;;;6245106;22;20743;-85
2021/09/28 13:07:08;;;;;;;;;;;;;;;;;;;;;
2021/09/28 13:13:15;;;;;;;3.77;1.53;;;22.40;22.10;;;;;;6188015;23;20419;-85
2021/09/28 13:16:25;;;;;;;;;;;;;;;;;;;;;
2021/09/28 13:19:46;;;;;;;;;;;;;;;;;;;;;
2021/09/28 13:28:23;;;;;;;5.87;1.97;;;22.00;20.00;;;;;;6215170;22;20555;-83
2021/09/28 13:34:11;;;;;;;9.40;2.10;;;22.00;21.20;;;;;;6216509;23;20437;-83
2021/09/28 13:57:55;;;;;;;4.23;1.60;;;21.70;20.00;;;;;;5863116;24;20459;-83
2021/09/28 14:38:11;;;;;;;;;;;;;;;;;;;;;
2021/09/28 14:51:53;;;;;;;8.20;2.63;;;20.00;23.10;;;;;;5975081;23;20416;-81
2021/09/28 14:54:20;;;;;;;6.83;2.13;;;19.80;23.80;;;;;;6126076;23;20778;-81
2021/09/28 14:56:47;;;;;;;6.70;1.90;;;19.70;24.40;;;;;;6226433;23;20890;-81
2021/09/28 14:59:14;;;;;;;9.13;2.20;;;19.50;24.80;;;;;;6224927;23;20404;-81
2021/09/28 15:01:42;;;;;;;8.00;2.20;;;19.30;26.50;;;;;;6216847;23;20400;-81
2021/09/28 15:04:09;;;;;;;13.20;3.30;;;19.20;29.00;;;;;;6216726;23;20402;-81
2021/09/28 15:06:36;;;;;;;10.93;2.23;;;19.20;29.90;;;;;;6216389;23;20403;-81
2021/09/28 15:09:06;;;;;;;10.77;3.03;;;19.10;29.80;;;;;;6226300;23;20992;-81
2021/09/28 15:11:33;;;;;;;9.17;2.20;;;19.10;29.60;;;;;;6216896;23;20786;-81
2021/09/28 15:14:02;;;;;;;8.70;2.30;;;19.20;30.50;;;;;;6213502;23;20489;-85
2021/09/28 15:16:36;;;;;;;12.17;2.53;;;19.30;30.90;;;;;;6216307;23;20251;-83
2021/09/28 15:19:03;;;;;;;8.23;2.43;;;19.10;30.70;;;;;;6226640;23;20542;-84
2021/09/28 15:21:30;;;;;;;8.10;1.97;;;19.00;30.90;;;;;;6226574;23;20907;-84
2021/09/28 15:23:57;;;;;;;9.33;1.93;;;19.10;32.30;;;;;;6216276;23;20920;-84
2021/09/28 15:26:25;;;;;;;8.67;2.10;;;19.00;31.50;;;;;;6216270;23;20459;-83
2021/09/28 15:28:52;;;;;;;6.10;2.30;;;18.90;31.10;;;;;;6214961;23;20529;-82
2021/09/28 15:31:24;;;;;;;9.50;2.87;;;18.80;31.00;;;;;;6216593;23;20440;-82
2021/09/28 15:33:59;;;;;;;9.53;2.87;;;18.80;32.40;;;;;;6226029;23;20404;-82
2021/09/28 15:36:27;;;;;;;7.17;2.00;;;18.70;32.10;;;;;;6216212;23;20879;-82
2021/09/28 15:38:55;;;;;;;8.13;1.80;;;18.70;34.10;;;;;;6216177;23;20445;-81
2021/09/28 15:41:27;;;;;;;8.87;2.27;;;18.50;31.00;;;;;;6216171;23;20403;-81
2021/09/28 15:43:58;;;;;;;7.00;2.20;;;18.40;32.20;;;;;;6224392;23;20429;-82
2021/09/28 15:46:26;;;;;;;9.50;2.17;;;18.20;31.30;;;;;;6215905;23;20898;-81
2021/09/28 15:48:56;;;;;;;14.60;3.60;;;18.10;33.80;;;;;;6216022;23;20448;-84
2021/09/28 15:51:28;;;;;;;8.20;2.83;;;18.10;32.60;;;;;;6226340;23;20483;-84
2021/09/28 15:53:57;;;;;;;8.40;1.83;;;18.00;33.40;;;;;;6215937;23;20409;-79
2021/09/28 15:56:37;;;;;;;6.17;1.93;;;18.00;33.40;;;;;;6216135;23;20446;-84
2021/09/28 16:02:53;;;;;;;6.57;1.80;;;17.90;33.40;;;;;;6117117;23;20437;-87
2021/09/28 16:15:43;;;;;;;10.80;2.40;;;17.70;35.60;;;;;;6055728;23;20422;-83
2021/09/28 16:21:29;;;;;;;8.07;1.73;;;17.30;36.30;;;;;;6075001;23;20424;-84
2021/09/28 16:27:13;;;;;;;8.63;3.47;;;17.20;37.40;;;;;;6161976;23;20484;-85
2021/09/28 16:29:39;;;;;;;8.10;2.10;;;17.20;36.80;;;;;;6254730;23;20446;-79
2021/09/28 16:32:15;;;;;;;8.03;2.10;;;17.00;39.10;;;;;;6255914;23;20432;-84
2021/09/28 16:34:48;;;;;;;7.87;1.50;;;16.90;40.00;;;;;;6256229;23;20745;-83
2021/09/28 16:37:31;;;;;;;6.13;2.00;;;16.80;41.40;;;;;;6255897;23;20406;-85
2021/09/28 16:40:02;;;;;;;6.97;1.70;;;16.70;41.30;;;;;;6256201;23;20422;-85
2021/09/28 16:42:52;;;;;;;9.33;2.40;;;16.70;43.00;;;;;;6245089;23;20409;-86